createdAt,value
2022-12-26T00:01:43.719Z,100259.41
2022-12-26T00:04:49.603Z,100255.88
2022-12-26T00:06:56.678Z,100263.69
2022-12-26T00:09:23.161Z,100268.03
2022-12-26T00:11:49.567Z,100260.19
2022-12-26T00:14:17.107Z,100272.25
2022-12-26T00:16:44.853Z,100267.91
2022-12-26T00:19:11.359Z,100260.22
2022-12-26T00:21:37.784Z,100246.31
2022-12-26T00:24:04.430Z,100239.56
2022-12-26T00:26:32.123Z,100242.19
2022-12-26T00:28:58.880Z,100239.59
2022-12-26T00:31:27.786Z,100245.69
2022-12-26T00:33:54.695Z,100230.13
2022-12-26T00:36:39.265Z,100219.88
2022-12-26T00:39:05.672Z,100229.28
2022-12-26T00:41:33.038Z,100243.06
2022-12-26T00:43:59.650Z,100256.91
2022-12-26T00:46:26.998Z,100245.59
2022-12-26T00:48:53.462Z,100257.69
2022-12-26T00:51:20.020Z,100252.44
2022-12-26T00:53:46.519Z,100247.28
2022-12-26T00:56:12.981Z,100245.50
2022-12-26T00:58:40.510Z,100249.78
2022-12-26T01:01:14.722Z,100267.03
2022-12-26T01:03:41.902Z,100260.09
2022-12-26T01:06:08.393Z,100257.41
2022-12-26T01:08:34.862Z,100260.88
2022-12-26T01:11:07.559Z,100256.53
2022-12-26T01:13:34.368Z,100254.81
2022-12-26T01:16:00.994Z,100255.56
2022-12-26T01:18:27.619Z,100266.75
2022-12-26T01:21:01.725Z,100282.34
2022-12-26T01:23:28.154Z,100273.75
2022-12-26T01:26:17.558Z,100281.56
2022-12-26T01:28:40.992Z,100275.53
2022-12-26T01:31:07.550Z,100276.50
2022-12-26T01:33:34.076Z,100277.38
2022-12-26T01:36:00.692Z,100278.25
2022-12-26T01:38:27.155Z,100260.97
2022-12-26T01:41:13.655Z,100254.91
2022-12-26T01:43:56.242Z,100266.97
2022-12-26T01:46:27.700Z,100252.25
2022-12-26T01:48:55.444Z,100250.47
2022-12-26T01:51:24.448Z,100238.31
2022-12-26T01:53:54.081Z,100248.63
2022-12-26T01:56:24.328Z,100252.06
2022-12-26T01:58:54.755Z,100247.75
2022-12-26T02:01:22.267Z,100252.06
2022-12-26T02:04:07.447Z,100254.59
2022-12-26T02:06:34.281Z,100252.06
2022-12-26T02:09:01.066Z,100243.50
2022-12-26T02:11:39.143Z,100229.81
2022-12-26T02:14:07.340Z,100235.13
2022-12-26T02:16:35.378Z,100230.75
2022-12-26T02:19:02.145Z,100232.56
2022-12-26T02:21:49.284Z,100235.19
2022-12-26T02:24:51.766Z,100261.19
2022-12-26T02:28:06.345Z,100257.72
2022-12-26T02:30:46.637Z,100258.66
2022-12-26T02:33:20.662Z,100265.59
2022-12-26T02:36:05.656Z,100264.66
2022-12-26T02:38:51.816Z,100268.97
2022-12-26T02:41:38.248Z,100288.03
2022-12-26T02:44:30.224Z,100273.28
2022-12-26T02:47:06.115Z,100282.75
2022-12-26T02:50:10.463Z,100263.75
2022-12-26T02:53:20.559Z,100268.03
2022-12-26T02:56:07.517Z,100270.53
2022-12-26T02:59:00.407Z,100269.63
2022-12-26T03:02:09.764Z,100278.25
2022-12-26T03:04:55.395Z,100280.84
2022-12-26T03:07:50.348Z,100260.13
2022-12-26T03:10:39.340Z,100259.31
2022-12-26T03:13:11.369Z,100272.16
2022-12-26T03:16:01.549Z,100271.31
2022-12-26T03:18:57.110Z,100273.91
2022-12-26T03:21:18.125Z,100274.78
2022-12-26T03:23:46.581Z,100283.44
2022-12-26T03:26:36.009Z,100280.84
2022-12-26T03:29:22.147Z,100267.84
2022-12-26T03:31:48.557Z,100274.63
2022-12-26T03:34:18.295Z,100270.28
2022-12-26T03:37:16.651Z,100277.06
2022-12-26T03:40:12.784Z,100302.09
2022-12-26T03:43:13.914Z,100312.41
2022-12-26T03:46:20.651Z,100293.28
2022-12-26T03:49:18.118Z,100289.75
2022-12-26T03:52:17.905Z,100281.06
2022-12-26T03:55:12.064Z,100281.06
2022-12-26T03:58:14.027Z,100282.75
2022-12-26T04:01:00.677Z,100298.25
2022-12-26T04:03:46.673Z,100308.59
2022-12-26T04:06:45.454Z,100309.34
2022-12-26T04:09:38.595Z,100296.41
2022-12-26T04:12:24.609Z,100304.19
2022-12-26T04:15:21.189Z,100289.53
2022-12-26T04:18:15.330Z,100296.50
2022-12-26T04:20:48.521Z,100305.94
2022-12-26T04:23:41.248Z,100322.38
2022-12-26T04:26:31.354Z,100311.94
2022-12-26T04:29:16.363Z,100325.72
2022-12-26T04:32:06.048Z,100331.72
2022-12-26T04:35:02.650Z,100324.84
2022-12-26T04:37:49.424Z,100332.59
2022-12-26T04:40:38.090Z,100329.09
2022-12-26T04:43:49.978Z,100341.22
2022-12-26T04:46:10.588Z,100337.72
2022-12-26T04:49:02.458Z,100329.97
2022-12-26T04:51:29.000Z,100336.84
2022-12-26T04:53:55.429Z,100342.88
2022-12-26T04:56:21.866Z,100343.66
2022-12-26T04:58:48.275Z,100338.56
2022-12-26T05:01:34.498Z,100334.28
2022-12-26T05:04:20.839Z,100342.09
2022-12-26T05:07:05.887Z,100346.25
2022-12-26T05:09:35.285Z,100353.28
2022-12-26T05:12:06.427Z,100348.97
2022-12-26T05:14:36.082Z,100341.16
2022-12-26T05:17:22.457Z,100348.91
2022-12-26T05:20:07.559Z,100345.38
2022-12-26T05:22:53.368Z,100336.72
2022-12-26T05:25:41.025Z,100329.84
2022-12-26T05:28:30.252Z,100336.72
2022-12-26T05:30:56.892Z,100334.97
2022-12-26T05:33:41.967Z,100344.38
2022-12-26T05:36:09.524Z,100340.88
2022-12-26T05:38:36.876Z,100340.78
2022-12-26T05:41:03.674Z,100335.50
2022-12-26T05:43:30.093Z,100330.22
2022-12-26T05:45:56.603Z,100323.38
2022-12-26T05:48:23.014Z,100321.50
2022-12-26T05:50:49.463Z,100330.97
2022-12-26T05:53:15.924Z,100346.44
2022-12-26T05:55:42.329Z,100355.03
2022-12-26T05:58:08.745Z,100362.78
2022-12-26T06:00:35.289Z,100369.63
2022-12-26T06:03:03.766Z,100380.84
2022-12-26T06:05:30.355Z,100381.75
2022-12-26T06:07:56.792Z,100383.50
2022-12-26T06:10:23.204Z,100384.47
2022-12-26T06:12:49.623Z,100374.19
2022-12-26T06:15:16.070Z,100384.47
2022-12-26T06:17:42.508Z,100394.06
2022-12-26T06:20:09.102Z,100390.69
2022-12-26T06:22:35.564Z,100395.84
2022-12-26T06:25:02.168Z,100390.69
2022-12-26T06:27:28.607Z,100389.75
2022-12-26T06:29:55.021Z,100390.59
2022-12-26T06:32:21.435Z,100408.72
2022-12-26T06:34:48.193Z,100391.47
2022-12-26T06:37:14.596Z,100391.56
2022-12-26T06:39:41.014Z,100389.75
2022-12-26T06:42:07.454Z,100401.97
2022-12-26T06:44:33.884Z,100394.06
2022-12-26T06:47:01.427Z,100397.63
2022-12-26T06:49:32.702Z,100392.50
2022-12-26T06:51:59.711Z,100393.41
2022-12-26T06:54:26.126Z,100383.94
2022-12-26T06:56:52.571Z,100385.72
2022-12-26T06:59:19.014Z,100390.00
2022-12-26T07:01:45.588Z,100393.41
2022-12-26T07:04:13.108Z,100393.38
2022-12-26T07:06:39.710Z,100397.72
2022-12-26T07:09:14.386Z,100384.72
2022-12-26T07:11:43.172Z,100389.75
2022-12-26T07:14:09.620Z,100400.91
2022-12-26T07:16:37.766Z,100407.72
2022-12-26T07:19:04.809Z,100399.84
2022-12-26T07:21:37.960Z,100407.50
2022-12-26T07:24:07.926Z,100400.63
2022-12-26T07:26:34.365Z,100406.69
2022-12-26T07:29:00.824Z,100422.22
2022-12-26T07:31:30.219Z,100423.16
2022-12-26T07:33:57.002Z,100425.75
2022-12-26T07:36:25.099Z,100424.91
2022-12-26T07:38:51.702Z,100424.03
2022-12-26T07:41:36.912Z,100423.16
2022-12-26T07:44:03.577Z,100431.84
2022-12-26T07:46:30.216Z,100418.09
2022-12-26T07:48:56.657Z,100423.25
2022-12-26T07:51:23.118Z,100427.56
2022-12-26T07:53:49.603Z,100447.38
2022-12-26T07:56:16.244Z,100455.19
2022-12-26T07:58:42.690Z,100450.91
2022-12-26T08:01:09.297Z,100456.13
2022-12-26T08:03:35.813Z,100464.09
2022-12-26T08:06:02.263Z,100458.19
2022-12-26T08:08:28.695Z,100461.75
2022-12-26T08:11:03.461Z,100457.53
2022-12-26T08:13:30.451Z,100450.78
2022-12-26T08:15:57.462Z,100448.25
2022-12-26T08:18:24.428Z,100448.28
2022-12-26T08:20:50.883Z,100449.31
2022-12-26T08:23:17.345Z,100451.94
2022-12-26T08:25:43.831Z,100456.34
2022-12-26T08:28:11.264Z,100465.13
2022-12-26T08:30:40.104Z,100473.84
2022-12-26T08:33:07.025Z,100472.25
2022-12-26T08:35:34.868Z,100482.69
2022-12-26T08:38:01.455Z,100485.47
2022-12-26T08:40:42.496Z,100476.06
2022-12-26T08:43:33.429Z,100479.56
2022-12-26T08:46:09.345Z,100474.44
2022-12-26T08:48:36.954Z,100489.09
2022-12-26T08:51:09.038Z,100490.00
2022-12-26T08:53:36.209Z,100494.34
2022-12-26T08:56:05.067Z,100485.75
2022-12-26T08:58:32.044Z,100484.03
2022-12-26T09:01:13.703Z,100484.13
2022-12-26T09:03:40.691Z,100488.44
2022-12-26T09:06:07.715Z,100498.78
2022-12-26T09:08:35.034Z,100496.38
2022-12-26T09:11:05.552Z,100502.44
2022-12-26T09:13:33.020Z,100498.25
2022-12-26T09:16:05.697Z,100510.38
2022-12-26T09:18:32.225Z,100513.84
2022-12-26T09:21:06.769Z,100505.28
2022-12-26T09:23:34.359Z,100514.91
2022-12-26T09:26:09.245Z,100514.13
2022-12-26T09:28:36.049Z,100521.09
2022-12-26T09:31:04.644Z,100527.09
2022-12-26T09:33:33.225Z,100531.53
2022-12-26T09:36:04.555Z,100539.31
2022-12-26T09:38:32.759Z,100532.47
2022-12-26T09:41:13.903Z,100529.88
2022-12-26T09:44:17.457Z,100522.94
2022-12-26T09:46:53.992Z,100516.09
2022-12-26T09:49:23.465Z,100513.50
2022-12-26T09:51:57.255Z,100523.03
2022-12-26T09:54:31.902Z,100528.22
2022-12-26T09:57:03.390Z,100510.13
2022-12-26T09:59:34.616Z,100512.72
2022-12-26T10:02:01.241Z,100516.16
2022-12-26T10:04:30.430Z,100516.09
2022-12-26T10:07:06.382Z,100532.66
2022-12-26T10:09:55.332Z,100546.50
2022-12-26T10:12:35.434Z,100540.50
2022-12-26T10:15:13.987Z,100530.06
2022-12-26T10:17:58.885Z,100532.53
2022-12-26T10:20:54.275Z,100540.25
2022-12-26T10:23:39.759Z,100539.28
2022-12-26T10:26:21.287Z,100538.41
2022-12-26T10:28:53.809Z,100536.72
2022-12-26T10:31:48.775Z,100539.28
2022-12-26T10:34:23.427Z,100553.16
2022-12-26T10:36:52.060Z,100547.09
2022-12-26T10:39:27.876Z,100537.66
2022-12-26T10:42:00.815Z,100545.53
2022-12-26T10:44:28.171Z,100537.84
2022-12-26T10:47:06.221Z,100528.38
2022-12-26T10:49:32.631Z,100516.34
2022-12-26T10:52:00.267Z,100514.66
2022-12-26T10:54:27.742Z,100511.25
2022-12-26T10:56:56.151Z,100540.59
2022-12-26T10:59:30.637Z,100526.03
2022-12-26T11:02:12.479Z,100528.66
2022-12-26T11:05:10.452Z,100526.25
2022-12-26T11:07:26.561Z,100527.97
2022-12-26T11:09:58.423Z,100527.97
2022-12-26T11:12:38.139Z,100529.78
2022-12-26T11:15:07.934Z,100540.28
2022-12-26T11:17:44.431Z,100536.81
2022-12-26T11:20:16.768Z,100532.66
2022-12-26T11:22:44.240Z,100523.13
2022-12-26T11:25:10.788Z,100523.16
2022-12-26T11:27:40.902Z,100531.06
2022-12-26T11:30:13.838Z,100520.75
2022-12-26T11:32:44.812Z,100511.31
2022-12-26T11:35:23.221Z,100509.53
2022-12-26T11:37:55.750Z,100510.34
2022-12-26T11:40:24.986Z,100505.97
2022-12-26T11:42:57.492Z,100510.34
2022-12-26T11:45:26.765Z,100511.16
2022-12-26T11:47:54.940Z,100506.91
2022-12-26T11:50:23.251Z,100502.56
2022-12-26T11:53:05.612Z,100506.84
2022-12-26T11:55:35.475Z,100504.38
2022-12-26T11:58:07.900Z,100502.59
2022-12-26T12:00:38.690Z,100494.81
2022-12-26T12:03:11.461Z,100503.38
2022-12-26T12:05:55.182Z,100501.59
2022-12-26T12:08:30.483Z,100491.22
2022-12-26T12:11:04.510Z,100493.75
2022-12-26T12:13:41.029Z,100495.53
2022-12-26T12:16:46.139Z,100498.06
2022-12-26T12:19:28.616Z,100498.91
2022-12-26T12:22:06.964Z,100497.25
2022-12-26T12:24:42.646Z,100491.22
2022-12-26T12:27:21.855Z,100487.03
2022-12-26T12:30:18.270Z,100486.34
2022-12-26T12:32:57.383Z,100484.63
2022-12-26T12:35:54.215Z,100485.50
2022-12-26T12:38:39.182Z,100484.81
2022-12-26T12:41:31.803Z,100484.84
2022-12-26T12:44:14.467Z,100475.38
2022-12-26T12:46:59.068Z,100489.22
2022-12-26T12:49:34.476Z,100484.06
2022-12-26T12:52:09.369Z,100490.19
2022-12-26T12:54:54.147Z,100482.34
2022-12-26T12:57:36.262Z,100481.47
2022-12-26T13:00:21.596Z,100498.91
2022-12-26T13:02:52.213Z,100503.25
2022-12-26T13:05:21.837Z,100496.31
2022-12-26T13:07:54.374Z,100496.25
2022-12-26T13:10:34.515Z,100496.25
2022-12-26T13:13:13.698Z,100510.94
2022-12-26T13:15:46.315Z,100505.75
2022-12-26T13:18:19.353Z,100505.66
2022-12-26T13:20:53.745Z,100508.16
2022-12-26T13:24:05.321Z,100509.84
2022-12-26T13:26:39.101Z,100496.81
2022-12-26T13:29:17.147Z,100501.13
2022-12-26T13:31:44.578Z,100489.88
2022-12-26T13:34:16.403Z,100494.34
2022-12-26T13:36:49.521Z,100496.06
2022-12-26T13:39:36.479Z,100501.25
2022-12-26T13:42:57.001Z,100501.31
2022-12-26T13:45:35.194Z,100495.38
2022-12-26T13:48:22.771Z,100491.03
2022-12-26T13:50:56.159Z,100509.19
2022-12-26T13:53:26.018Z,100500.56
2022-12-26T13:56:04.091Z,100500.56
2022-12-26T13:59:07.634Z,100492.72
2022-12-26T14:01:46.188Z,100487.53
2022-12-26T14:04:34.210Z,100483.28
2022-12-26T14:07:22.404Z,100480.78
2022-12-26T14:09:53.186Z,100472.94
2022-12-26T14:12:50.710Z,100478.34
2022-12-26T14:15:28.387Z,100468.91
2022-12-26T14:18:08.456Z,100475.03
2022-12-26T14:21:00.245Z,100472.44
2022-12-26T14:23:36.479Z,100474.06
2022-12-26T14:26:32.832Z,100480.00
2022-12-26T14:29:29.437Z,100481.66
2022-12-26T14:32:43.236Z,100492.69
2022-12-26T14:35:27.947Z,100493.28
2022-12-26T14:38:22.774Z,100492.28
2022-12-26T14:41:06.074Z,100497.41
2022-12-26T14:43:38.288Z,100494.59
2022-12-26T14:46:32.782Z,100496.41
2022-12-26T14:49:00.955Z,100500.72
2022-12-26T14:51:30.670Z,100496.31
2022-12-26T14:54:16.814Z,100508.41
2022-12-26T14:56:43.364Z,100503.16
2022-12-26T14:59:29.789Z,100511.78
2022-12-26T15:02:28.476Z,100507.31
2022-12-26T15:05:11.470Z,100505.50
2022-12-26T15:08:07.597Z,100508.84
2022-12-26T15:10:55.665Z,100508.75
2022-12-26T15:13:55.451Z,100514.78
2022-12-26T15:16:27.758Z,100519.84
2022-12-26T15:19:15.548Z,100520.59
2022-12-26T15:21:51.042Z,100529.25
2022-12-26T15:25:16.406Z,100527.34
2022-12-26T15:28:00.345Z,100525.53
2022-12-26T15:30:50.911Z,100534.09
2022-12-26T15:33:29.392Z,100524.41
2022-12-26T15:36:22.620Z,100523.38
2022-12-26T15:38:59.079Z,100530.28
2022-12-26T15:41:35.994Z,100527.59
2022-12-26T15:44:18.731Z,100530.16
2022-12-26T15:47:08.584Z,100528.47
2022-12-26T15:49:53.698Z,100531.09
2022-12-26T15:52:44.255Z,100535.41
2022-12-26T15:55:29.625Z,100553.50
2022-12-26T15:57:59.364Z,100572.47
2022-12-26T16:00:27.094Z,100582.72
2022-12-26T16:03:09.020Z,100599.91
2022-12-26T16:05:44.059Z,100600.72
2022-12-26T16:08:14.344Z,100605.78
2022-12-26T16:10:41.141Z,100604.78
2022-12-26T16:13:13.517Z,100609.03
2022-12-26T16:15:51.233Z,100613.34
2022-12-26T16:18:21.029Z,100609.91
2022-12-26T16:21:14.699Z,100610.66
2022-12-26T16:23:42.255Z,100600.13
2022-12-26T16:26:17.095Z,100606.16
2022-12-26T16:28:43.863Z,100607.78
2022-12-26T16:31:17.989Z,100616.41
2022-12-26T16:33:44.407Z,100611.09
2022-12-26T16:36:21.358Z,100606.63
2022-12-26T16:38:48.151Z,100614.31
2022-12-26T16:41:24.047Z,100617.69
2022-12-26T16:43:51.632Z,100621.91
2022-12-26T16:46:19.114Z,100624.38
2022-12-26T16:48:48.710Z,100624.31
2022-12-26T16:51:33.710Z,100638.81
2022-12-26T16:54:20.669Z,100644.66
2022-12-26T16:57:01.071Z,100653.28
2022-12-26T16:59:36.400Z,100655.81
2022-12-26T17:02:03.111Z,100673.88
2022-12-26T17:04:30.392Z,100670.34
2022-12-26T17:07:08.185Z,100675.53
2022-12-26T17:09:40.334Z,100667.78
2022-12-26T17:12:08.674Z,100668.44
2022-12-26T17:14:37.379Z,100681.97
2022-12-26T17:17:06.585Z,100688.78
2022-12-26T17:19:35.826Z,100702.22
2022-12-26T17:22:14.517Z,100709.53
2022-12-26T17:24:42.337Z,100708.34
2022-12-26T17:27:24.735Z,100728.38
2022-12-26T17:29:57.548Z,100732.44
2022-12-26T17:32:33.185Z,100731.44
2022-12-26T17:35:06.010Z,100746.44
2022-12-26T17:37:32.997Z,100753.00
2022-12-26T17:40:07.070Z,100755.34
2022-12-26T17:42:47.668Z,100755.09
2022-12-26T17:45:19.755Z,100755.59
2022-12-26T17:47:46.297Z,100769.75
2022-12-26T17:50:13.101Z,100760.38
2022-12-26T17:52:39.584Z,100760.00
2022-12-26T17:55:13.941Z,100746.63
2022-12-26T17:57:40.329Z,100751.53
2022-12-26T18:00:14.901Z,100751.53
2022-12-26T18:02:41.396Z,100761.66
2022-12-26T18:05:08.162Z,100759.66
2022-12-26T18:07:34.587Z,100765.56
2022-12-26T18:10:02.771Z,100763.72
2022-12-26T18:12:29.309Z,100769.38
2022-12-26T18:15:01.388Z,100772.34
2022-12-26T18:17:31.988Z,100773.69
2022-12-26T18:19:58.901Z,100785.50
2022-12-26T18:22:25.357Z,100784.56
2022-12-26T18:24:51.801Z,100785.94
2022-12-26T18:27:28.105Z,100801.41
2022-12-26T18:29:54.518Z,100810.56
2022-12-26T18:32:28.268Z,100818.94
2022-12-26T18:34:54.999Z,100816.53
2022-12-26T18:37:23.136Z,100819.81
2022-12-26T18:39:49.568Z,100818.78
2022-12-26T18:42:17.008Z,100835.16
2022-12-26T18:44:43.871Z,100837.72
2022-12-26T18:47:16.385Z,100841.84
2022-12-26T18:49:43.401Z,100845.03
2022-12-26T18:52:10.633Z,100848.38
2022-12-26T18:54:38.897Z,100858.53
2022-12-26T18:57:07.055Z,100874.03
2022-12-26T18:59:33.876Z,100869.69
2022-12-26T19:02:00.542Z,100883.47
2022-12-26T19:04:27.025Z,100897.91
2022-12-26T19:06:53.708Z,100895.97
2022-12-26T19:09:20.226Z,100904.69
2022-12-26T19:11:46.658Z,100914.66
2022-12-26T19:14:21.972Z,100914.66
2022-12-26T19:16:48.457Z,100918.22
2022-12-26T19:19:15.000Z,100918.94
2022-12-26T19:21:42.540Z,100919.66
2022-12-26T19:24:11.418Z,100923.03
2022-12-26T19:26:37.819Z,100919.50
2022-12-26T19:29:04.248Z,100927.88
2022-12-26T19:31:30.700Z,100923.34
2022-12-26T19:33:58.724Z,100934.47
2022-12-26T19:36:25.195Z,100946.41
2022-12-26T19:38:55.116Z,100950.75
2022-12-26T19:41:22.071Z,100946.06
2022-12-26T19:43:48.662Z,100946.16
2022-12-26T19:46:15.794Z,100951.22
2022-12-26T19:48:42.809Z,100946.88
2022-12-26T19:51:11.600Z,100945.88
2022-12-26T19:53:38.657Z,100946.53
2022-12-26T19:56:15.605Z,100943.78
2022-12-26T19:58:42.320Z,100945.22
2022-12-26T20:01:28.896Z,100945.03
2022-12-26T20:03:57.049Z,100956.97
2022-12-26T20:06:25.173Z,100961.94
2022-12-26T20:08:51.989Z,100968.56
2022-12-26T20:11:21.375Z,100979.53
2022-12-26T20:13:48.319Z,100983.66
2022-12-26T20:16:45.920Z,100984.28
2022-12-26T20:19:04.254Z,100984.00
2022-12-26T20:21:30.724Z,100990.50
2022-12-26T20:23:58.339Z,100991.13
2022-12-26T20:26:25.845Z,100991.06
2022-12-26T20:28:56.375Z,100982.88
2022-12-26T20:31:23.245Z,100975.84
2022-12-26T20:33:50.836Z,100971.34
2022-12-26T20:36:19.705Z,100977.97
2022-12-26T20:38:46.403Z,100980.28
2022-12-26T20:41:13.354Z,100984.63
2022-12-26T20:43:40.108Z,100983.66
2022-12-26T20:46:12.738Z,100986.16
2022-12-26T20:48:39.173Z,100986.97
2022-12-26T20:51:07.937Z,100977.47
2022-12-26T20:53:35.050Z,100980.63
2022-12-26T20:56:01.851Z,100984.63
2022-12-26T20:58:29.815Z,100987.03
2022-12-26T21:00:58.242Z,100996.34
2022-12-26T21:03:25.642Z,101003.88
2022-12-26T21:05:52.496Z,101006.28
2022-12-26T21:08:19.533Z,101017.19
2022-12-26T21:10:46.158Z,101023.03
2022-12-26T21:13:12.988Z,101021.16
2022-12-26T21:15:39.958Z,101020.88
2022-12-26T21:18:06.374Z,101029.31
2022-12-26T21:20:32.859Z,101036.84
2022-12-26T21:22:59.323Z,101044.41
2022-12-26T21:25:25.773Z,101041.34
2022-12-26T21:27:56.088Z,101054.00
2022-12-26T21:30:25.359Z,101064.78
2022-12-26T21:32:51.950Z,101074.81
2022-12-26T21:35:18.425Z,101080.66
2022-12-26T21:37:54.016Z,101097.69
2022-12-26T21:40:23.533Z,101098.25
2022-12-26T21:42:49.922Z,101116.19
2022-12-26T21:45:16.421Z,101109.34
2022-12-26T21:47:42.850Z,101117.94
2022-12-26T21:50:09.382Z,101116.19
2022-12-26T21:52:35.773Z,101125.56
2022-12-26T21:55:20.889Z,101124.59
2022-12-26T21:57:47.328Z,101127.97
2022-12-26T22:00:14.187Z,101132.13
2022-12-26T22:02:59.220Z,101139.84
2022-12-26T22:05:29.366Z,101142.31
2022-12-26T22:07:57.983Z,101149.03
2022-12-26T22:10:44.368Z,101151.44
2022-12-26T22:13:10.826Z,101153.13
2022-12-26T22:16:03.788Z,101159.97
2022-12-26T22:18:31.898Z,101155.63
2022-12-26T22:21:15.710Z,101167.50
2022-12-26T22:23:42.994Z,101165.72
2022-12-26T22:26:11.496Z,101161.56
2022-12-26T22:28:38.402Z,101164.13
2022-12-26T22:31:05.421Z,101168.47
2022-12-26T22:33:32.026Z,101169.38
2022-12-26T22:36:06.470Z,101173.63
2022-12-26T22:38:33.564Z,101177.97
2022-12-26T22:41:00.396Z,101174.59
2022-12-26T22:43:27.471Z,101182.22
2022-12-26T22:45:54.409Z,101191.63
2022-12-26T22:48:21.265Z,101201.91
2022-12-26T22:50:51.484Z,101200.13
2022-12-26T22:53:18.018Z,101206.97
2022-12-26T22:55:49.180Z,101209.44
2022-12-26T22:58:16.925Z,101211.91
2022-12-26T23:00:44.604Z,101216.94
2022-12-26T23:03:11.818Z,101214.19
2022-12-26T23:05:39.180Z,101211.19
2022-12-26T23:08:07.293Z,101216.94
2022-12-26T23:10:34.782Z,101220.28
2022-12-26T23:13:01.818Z,101212.38
2022-12-26T23:15:28.800Z,101214.72
2022-12-26T23:18:26.688Z,101216.00
2022-12-26T23:21:12.472Z,101215.69
2022-12-26T23:23:39.411Z,101216.25
2022-12-26T23:26:05.936Z,101219.41
2022-12-26T23:28:51.017Z,101220.09
2022-12-26T23:31:17.491Z,101225.94
2022-12-26T23:33:44.000Z,101233.41
2022-12-26T23:36:10.501Z,101228.97
2022-12-26T23:38:37.019Z,101234.00
2022-12-26T23:41:03.583Z,101233.00
2022-12-26T23:43:30.145Z,101238.94
2022-12-26T23:45:56.654Z,101242.97
2022-12-26T23:48:23.111Z,101241.19
2022-12-26T23:50:49.658Z,101244.41
2022-12-26T23:53:16.214Z,101246.88
2022-12-26T23:55:42.792Z,101242.44
2022-12-26T23:58:09.321Z,101245.00
